Time;durP1;ratioP1;P1;durP2;ratioP2;P2;SDS_P1;SDS_P2;PMS_P1;PMS_P2;Temp;Humidity;BMP_temperature;BMP_pressure;BME280_temperature;BME280_humidity;BME280_pressure;Samples;Min_cycle;Max_cycle;Signal;HPM_P1;HPM_P2
2021/03/17 00:00:56;;;;;;;3.30;3.00;;;4.70;99.90;;;;;;5033067;28;20797;-68
2021/03/17 00:03:23;;;;;;;4.60;3.70;;;4.70;99.90;;;;;;5033113;28;20824;-68
2021/03/17 00:05:48;;;;;;;3.50;3.20;;;4.60;99.90;;;;;;5032958;28;20812;-68
2021/03/17 00:08:19;;;;;;;3.70;3.40;;;4.70;99.90;;;;;;5033011;28;20455;-68
2021/03/17 00:10:47;;;;;;;3.97;3.60;;;4.70;99.90;;;;;;5033092;28;20178;-68
2021/03/17 00:13:13;;;;;;;7.40;6.27;;;4.70;99.90;;;;;;5032985;28;20429;-68
2021/03/17 00:15:40;;;;;;;4.80;3.10;;;4.80;99.90;;;;;;5031300;28;20507;-68
2021/03/17 00:18:08;;;;;;;3.70;3.27;;;4.80;99.90;;;;;;5033185;28;20221;-68
2021/03/17 00:20:34;;;;;;;4.07;3.67;;;4.70;99.90;;;;;;5032820;28;20467;-68
2021/03/17 00:22:59;;;;;;;3.60;3.30;;;4.70;99.90;;;;;;5032835;28;20421;-68
2021/03/17 00:25:28;;;;;;;3.57;3.27;;;4.70;99.90;;;;;;5031691;28;20189;-69
2021/03/17 00:27:54;;;;;;;3.87;3.47;;;4.70;99.90;;;;;;5032282;28;20603;-68
2021/03/17 00:30:20;;;;;;;5.00;3.60;;;4.70;99.90;;;;;;5032502;28;20437;-68
2021/03/17 00:32:46;;;;;;;4.03;3.53;;;4.60;99.90;;;;;;5032425;28;20171;-68
2021/03/17 00:35:11;;;;;;;4.47;3.27;;;4.70;99.90;;;;;;5031493;28;20432;-68
2021/03/17 00:37:37;;;;;;;4.10;3.10;;;4.60;99.90;;;;;;5032166;28;20256;-68
2021/03/17 00:40:04;;;;;;;5.23;3.03;;;4.60;99.90;;;;;;5032290;28;20252;-68
2021/03/17 00:42:29;;;;;;;3.80;3.50;;;4.60;99.90;;;;;;5032193;28;20533;-68
2021/03/17 00:44:55;;;;;;;3.17;2.87;;;4.60;99.90;;;;;;5031049;28;20428;-68
2021/03/17 00:47:21;;;;;;;2.90;2.37;;;4.70;99.90;;;;;;5032000;28;20193;-68
2021/03/17 00:49:46;;;;;;;3.70;3.40;;;4.70;99.90;;;;;;5032086;28;20723;-68
2021/03/17 00:52:12;;;;;;;6.50;2.70;;;4.70;99.90;;;;;;5032357;28;20549;-68
2021/03/17 00:54:37;;;;;;;3.50;3.20;;;4.70;99.90;;;;;;5031733;28;20240;-68
2021/03/17 00:57:03;;;;;;;2.80;2.60;;;4.70;99.90;;;;;;5031359;28;20178;-68
2021/03/17 00:59:30;;;;;;;3.10;2.90;;;4.70;99.90;;;;;;5031495;28;20201;-68
2021/03/17 01:01:56;;;;;;;3.60;2.83;;;4.60;99.90;;;;;;5032029;28;20265;-68
2021/03/17 01:04:22;;;;;;;2.73;2.53;;;4.60;99.90;;;;;;5031657;28;20433;-68
2021/03/17 01:06:47;;;;;;;3.97;3.40;;;4.70;99.90;;;;;;5031317;28;20436;-68
2021/03/17 01:09:13;;;;;;;3.67;2.83;;;4.70;99.90;;;;;;5031425;28;20202;-67
2021/03/17 01:11:39;;;;;;;3.10;2.90;;;4.70;99.90;;;;;;5031712;28;20182;-68
2021/03/17 01:14:04;;;;;;;3.03;2.80;;;4.70;99.90;;;;;;5031184;28;20429;-68
2021/03/17 01:16:30;;;;;;;3.70;3.27;;;4.70;99.90;;;;;;5030813;28;20182;-68
2021/03/17 01:18:56;;;;;;;3.50;3.20;;;4.60;99.90;;;;;;5031484;28;20247;-68
2021/03/17 01:21:21;;;;;;;4.23;3.20;;;4.50;99.90;;;;;;5031553;28;20216;-68
2021/03/17 01:23:46;;;;;;;4.07;3.77;;;4.50;99.90;;;;;;5031177;28;20432;-68
2021/03/17 01:26:12;;;;;;;4.77;3.30;;;4.40;99.90;;;;;;5030534;28;20174;-68
2021/03/17 01:28:39;;;;;;;3.27;2.97;;;4.30;99.90;;;;;;5031173;28;20583;-68
2021/03/17 01:31:04;;;;;;;3.63;3.33;;;4.30;99.90;;;;;;5031192;28;20268;-68
2021/03/17 01:33:30;;;;;;;3.40;2.90;;;4.30;99.90;;;;;;5031017;28;20888;-68
2021/03/17 01:35:57;;;;;;;3.67;3.37;;;4.30;99.90;;;;;;5030789;28;20247;-68
2021/03/17 01:38:23;;;;;;;4.13;3.73;;;4.30;99.90;;;;;;5030889;28;20281;-67
2021/03/17 01:40:50;;;;;;;3.40;3.10;;;4.40;99.90;;;;;;5031350;28;20543;-68
2021/03/17 01:43:16;;;;;;;3.50;3.23;;;4.40;99.90;;;;;;5030972;28;20421;-68
2021/03/17 01:45:42;;;;;;;3.57;3.10;;;4.30;99.90;;;;;;5030495;28;20520;-68
2021/03/17 01:48:08;;;;;;;3.50;3.20;;;4.20;99.90;;;;;;5030899;28;20213;-68
2021/03/17 01:50:43;;;;;;;4.07;3.33;;;4.20;99.90;;;;;;5030814;28;20432;-68
2021/03/17 01:53:12;;;;;;;3.50;3.20;;;4.30;99.90;;;;;;5031164;28;20463;-68
2021/03/17 01:55:39;;;;;;;4.43;3.37;;;4.30;99.90;;;;;;5030062;28;20433;-68
2021/03/17 01:58:05;;;;;;;3.07;2.77;;;4.40;99.90;;;;;;5031336;28;20485;-68
2021/03/17 02:00:32;;;;;;;3.47;3.17;;;4.40;99.90;;;;;;5030579;28;20464;-68
2021/03/17 02:02:57;;;;;;;4.10;3.73;;;4.50;99.90;;;;;;5031182;28;20432;-68
2021/03/17 02:05:32;;;;;;;4.83;4.27;;;4.50;99.90;;;;;;5030690;28;20439;-68
2021/03/17 02:08:02;;;;;;;4.30;3.90;;;4.50;99.90;;;;;;5030804;28;20232;-68
2021/03/17 02:10:28;;;;;;;3.90;3.50;;;4.40;99.90;;;;;;5030908;28;20441;-68
2021/03/17 02:13:15;;;;;;;4.10;3.70;;;4.30;99.90;;;;;;5030973;28;20494;-68
2021/03/17 02:16:06;;;;;;;4.17;3.50;;;4.20;99.90;;;;;;5030014;28;20436;-68
2021/03/17 02:18:46;;;;;;;4.80;3.80;;;4.20;99.90;;;;;;5030555;28;20540;-68
2021/03/17 02:21:30;;;;;;;4.57;4.07;;;4.20;99.90;;;;;;5030785;28;20474;-68
2021/03/17 02:24:07;;;;;;;4.90;4.40;;;4.20;99.90;;;;;;5028005;28;20429;-68
2021/03/17 02:26:58;;;;;;;3.83;3.00;;;4.20;99.90;;;;;;5015240;28;20428;-68
2021/03/17 02:30:09;;;;;;;4.37;3.70;;;4.20;99.90;;;;;;5030478;28;20803;-68
2021/03/17 02:32:37;;;;;;;3.40;3.10;;;4.20;99.90;;;;;;4996204;28;20959;-68
2021/03/17 02:35:08;;;;;;;5.13;4.33;;;4.20;99.90;;;;;;5029717;28;20801;-68
2021/03/17 02:37:39;;;;;;;4.97;4.47;;;4.20;99.90;;;;;;5029974;28;20957;-68
2021/03/17 02:40:10;;;;;;;5.17;4.67;;;4.10;99.90;;;;;;5033890;28;20464;-69
2021/03/17 02:42:57;;;;;;;4.23;3.33;;;4.10;99.90;;;;;;5034595;28;20429;-69
2021/03/17 02:45:27;;;;;;;4.97;4.47;;;4.20;99.90;;;;;;5033785;28;20439;-68
2021/03/17 02:47:59;;;;;;;4.33;3.93;;;4.20;99.90;;;;;;5033981;28;20590;-69
2021/03/17 02:50:26;;;;;;;4.37;3.27;;;4.20;99.90;;;;;;5034426;28;20424;-69
2021/03/17 02:52:54;;;;;;;4.20;3.80;;;4.20;99.90;;;;;;5034238;28;20464;-68
2021/03/17 02:55:24;;;;;;;4.63;4.17;;;4.20;99.90;;;;;;5033348;28;20841;-68
2021/03/17 02:57:54;;;;;;;4.37;3.97;;;4.20;99.90;;;;;;5033884;28;20456;-69
2021/03/17 03:00:21;;;;;;;4.13;3.77;;;4.10;99.90;;;;;;5034122;28;20878;-68
2021/03/17 03:02:49;;;;;;;6.30;4.60;;;4.20;99.90;;;;;;5033933;28;20433;-68
2021/03/17 03:05:16;;;;;;;4.60;3.93;;;4.20;99.90;;;;;;5033324;28;20936;-69
2021/03/17 03:07:44;;;;;;;4.10;3.67;;;4.10;99.90;;;;;;5033702;28;20972;-68
2021/03/17 03:10:11;;;;;;;4.17;3.40;;;4.10;99.90;;;;;;5019829;28;20486;-68
2021/03/17 03:12:39;;;;;;;5.00;3.53;;;4.10;99.90;;;;;;5034077;28;20435;-69
2021/03/17 03:15:08;;;;;;;4.20;3.80;;;4.00;99.90;;;;;;5033016;28;20436;-68
2021/03/17 03:17:37;;;;;;;3.90;3.60;;;4.00;99.90;;;;;;5033546;28;20464;-68
2021/03/17 03:20:08;;;;;;;4.40;3.60;;;4.00;99.90;;;;;;5033787;28;20499;-68
2021/03/17 03:22:35;;;;;;;5.33;4.47;;;4.10;99.90;;;;;;5033544;28;20827;-68
2021/03/17 03:25:00;;;;;;;4.80;4.30;;;4.10;99.90;;;;;;5032828;28;20447;-68
2021/03/17 03:27:27;;;;;;;4.50;4.07;;;4.00;99.90;;;;;;5033243;28;20432;-68
2021/03/17 03:29:55;;;;;;;4.20;3.77;;;3.90;99.90;;;;;;5033808;28;20267;-68
2021/03/17 03:32:20;;;;;;;3.67;3.37;;;3.90;99.90;;;;;;5033528;28;20447;-68
2021/03/17 03:34:46;;;;;;;4.90;4.43;;;3.80;99.90;;;;;;5032803;28;20436;-69
2021/03/17 03:37:14;;;;;;;4.50;3.77;;;3.90;99.90;;;;;;5033345;28;20551;-68
2021/03/17 03:39:39;;;;;;;4.87;4.00;;;3.90;99.90;;;;;;5032064;28;20789;-69
2021/03/17 03:42:05;;;;;;;4.47;4.07;;;3.90;99.90;;;;;;5033118;28;20511;-69
2021/03/17 03:44:32;;;;;;;4.77;4.30;;;3.90;99.90;;;;;;5033104;28;20170;-68
2021/03/17 03:46:58;;;;;;;4.30;3.90;;;4.00;99.90;;;;;;5032779;28;20440;-68
2021/03/17 03:49:24;;;;;;;5.57;5.07;;;4.10;99.90;;;;;;5032966;28;20544;-68
2021/03/17 03:52:01;;;;;;;5.87;5.30;;;4.10;99.90;;;;;;5033620;28;20174;-68
2021/03/17 03:54:47;;;;;;;4.03;3.63;;;4.00;99.90;;;;;;5032590;28;20174;-68
2021/03/17 03:57:27;;;;;;;4.87;4.37;;;4.10;99.90;;;;;;5033588;28;21060;-68
2021/03/17 04:00:00;;;;;;;6.83;4.70;;;4.00;99.90;;;;;;5017990;28;20483;-68
2021/03/17 04:02:27;;;;;;;4.90;3.93;;;3.90;99.90;;;;;;5033092;28;20441;-68
2021/03/17 04:04:55;;;;;;;5.90;4.20;;;3.90;99.90;;;;;;5032093;28;20424;-68
2021/03/17 04:07:22;;;;;;;4.47;4.03;;;3.90;99.90;;;;;;5032532;28;20727;-68
2021/03/17 04:09:50;;;;;;;5.63;5.03;;;3.90;99.90;;;;;;5033156;28;20486;-68
2021/03/17 04:12:19;;;;;;;4.73;4.33;;;3.90;99.90;;;;;;5032980;28;20429;-68
2021/03/17 04:14:50;;;;;;;5.07;4.57;;;3.90;99.90;;;;;;5031801;28;20515;-67
2021/03/17 04:17:24;;;;;;;8.50;5.27;;;4.00;99.90;;;;;;5029495;28;20544;-68
2021/03/17 04:19:55;;;;;;;5.70;4.93;;;4.00;99.90;;;;;;5032781;28;20821;-68
2021/03/17 04:22:22;;;;;;;6.17;5.43;;;4.00;99.90;;;;;;5032870;28;21148;-68
2021/03/17 04:24:50;;;;;;;6.80;6.10;;;4.00;99.90;;;;;;5031565;28;20805;-68
2021/03/17 04:27:17;;;;;;;7.10;5.60;;;4.00;99.90;;;;;;5032568;28;20428;-68
2021/03/17 04:29:45;;;;;;;6.50;5.73;;;4.00;99.90;;;;;;5032537;28;20461;-68
2021/03/17 04:32:12;;;;;;;6.33;5.13;;;4.00;99.90;;;;;;5032533;28;20515;-69
2021/03/17 04:34:38;;;;;;;6.80;6.10;;;4.00;99.90;;;;;;5032257;28;20479;-69
2021/03/17 04:37:05;;;;;;;7.33;6.10;;;3.90;99.90;;;;;;5031473;28;20429;-68
2021/03/17 04:39:31;;;;;;;7.23;6.50;;;3.90;99.90;;;;;;5032311;28;20965;-68
2021/03/17 04:41:57;;;;;;;8.63;7.37;;;4.00;99.90;;;;;;5032195;28;20425;-68
2021/03/17 04:44:23;;;;;;;7.20;6.50;;;4.10;99.90;;;;;;5032343;28;20433;-68
2021/03/17 04:46:50;;;;;;;7.30;6.57;;;4.10;99.90;;;;;;5031733;28;20831;-68
2021/03/17 04:49:19;;;;;;;7.47;6.67;;;4.20;99.90;;;;;;5032219;28;20514;-68
2021/03/17 04:51:46;;;;;;;8.10;7.30;;;4.20;99.90;;;;;;5031880;28;20429;-68
2021/03/17 04:54:12;;;;;;;7.63;6.67;;;4.10;99.90;;;;;;5031946;28;20528;-68
2021/03/17 04:56:42;;;;;;;7.33;6.60;;;4.10;99.90;;;;;;5031656;28;20997;-68
2021/03/17 04:59:09;;;;;;;9.83;8.20;;;4.10;99.90;;;;;;5030492;28;20483;-68
2021/03/17 05:01:36;;;;;;;14.80;11.50;;;4.10;99.90;;;;;;5031383;28;20425;-68
2021/03/17 05:04:05;;;;;;;12.33;9.40;;;4.10;99.90;;;;;;5031578;28;20515;-68
2021/03/17 05:06:32;;;;;;;12.60;9.40;;;4.10;99.90;;;;;;5031307;28;20968;-68
2021/03/17 05:09:01;;;;;;;10.43;8.00;;;4.10;99.90;;;;;;5032117;28;20858;-68
2021/03/17 05:11:28;;;;;;;9.27;8.37;;;4.10;99.90;;;;;;5015537;28;20429;-68
2021/03/17 05:13:54;;;;;;;9.73;8.73;;;4.10;99.90;;;;;;5031514;28;20425;-68
2021/03/17 05:16:20;;;;;;;10.80;8.83;;;4.10;99.90;;;;;;5030749;28;20847;-68
2021/03/17 05:18:48;;;;;;;10.90;8.90;;;4.10;99.90;;;;;;5032239;28;20198;-69
2021/03/17 05:21:14;;;;;;;10.77;9.67;;;4.10;99.90;;;;;;5031305;28;20428;-68
2021/03/17 05:23:41;;;;;;;11.40;9.93;;;4.10;99.90;;;;;;5031246;28;20450;-68
2021/03/17 05:26:07;;;;;;;9.77;8.77;;;4.10;99.90;;;;;;5030868;28;20437;-68
2021/03/17 05:28:34;;;;;;;10.77;7.90;;;4.20;99.90;;;;;;5031326;28;20460;-68
2021/03/17 05:31:00;;;;;;;9.17;8.10;;;4.20;99.90;;;;;;5031047;28;20220;-68
2021/03/17 05:33:27;;;;;;;12.03;9.70;;;4.20;99.90;;;;;;5030917;28;20487;-68
2021/03/17 05:35:53;;;;;;;12.30;9.40;;;4.20;99.90;;;;;;5030748;28;20428;-68
2021/03/17 05:38:19;;;;;;;10.80;9.80;;;4.20;99.90;;;;;;5029836;28;20460;-67
2021/03/17 05:40:45;;;;;;;10.40;9.30;;;4.20;99.90;;;;;;5030842;28;20542;-67
2021/03/17 05:43:10;;;;;;;12.70;10.60;;;4.30;99.90;;;;;;5030698;28;20178;-67
2021/03/17 05:45:38;;;;;;;11.97;10.70;;;4.30;99.90;;;;;;5030482;28;20433;-68
2021/03/17 05:48:05;;;;;;;12.13;10.77;;;4.20;99.90;;;;;;5030433;28;20202;-68
2021/03/17 05:50:31;;;;;;;14.07;12.33;;;4.20;99.90;;;;;;5030716;28;20424;-67
2021/03/17 05:52:57;;;;;;;19.93;13.00;;;4.10;99.90;;;;;;5030251;28;20503;-67
2021/03/17 05:55:22;;;;;;;16.17;12.47;;;4.00;99.90;;;;;;5029109;28;20448;-67
2021/03/17 05:57:48;;;;;;;13.83;11.60;;;4.10;99.90;;;;;;5032605;28;20461;-67
2021/03/17 06:00:22;;;;;;;12.53;11.23;;;4.10;99.90;;;;;;5030771;28;20201;-68
2021/03/17 06:02:48;;;;;;;14.70;12.40;;;4.10;99.90;;;;;;5046209;28;20177;-68
2021/03/17 06:05:16;;;;;;;16.57;13.97;;;4.10;99.90;;;;;;5030342;28;20433;-68
2021/03/17 06:07:43;;;;;;;16.17;14.03;;;4.10;99.90;;;;;;5030311;28;20506;-68
2021/03/17 06:10:10;;;;;;;15.93;12.70;;;4.10;99.90;;;;;;5030645;28;20436;-68
2021/03/17 06:12:37;;;;;;;19.17;14.40;;;4.10;99.90;;;;;;5028822;28;20425;-68
2021/03/17 06:15:05;;;;;;;18.93;14.47;;;4.20;99.90;;;;;;5039491;28;20456;-66
2021/03/17 06:17:33;;;;;;;21.10;16.80;;;4.20;99.90;;;;;;5030685;28;20432;-67
2021/03/17 06:20:03;;;;;;;16.97;14.60;;;4.20;99.90;;;;;;5030338;28;20965;-67
2021/03/17 06:22:29;;;;;;;17.90;14.30;;;4.30;99.90;;;;;;5030670;28;20468;-67
2021/03/17 06:24:55;;;;;;;17.80;14.90;;;4.30;99.90;;;;;;5029613;28;20980;-68
2021/03/17 06:27:21;;;;;;;18.37;14.77;;;4.30;99.90;;;;;;5030640;28;20174;-68
2021/03/17 06:29:47;;;;;;;16.63;14.67;;;4.30;99.90;;;;;;5030366;28;20944;-68
2021/03/17 06:32:12;;;;;;;20.43;15.57;;;4.30;99.90;;;;;;5030801;28;20174;-67
2021/03/17 06:34:48;;;;;;;15.77;14.10;;;4.40;99.90;;;;;;5030164;28;20214;-68
2021/03/17 06:37:15;;;;;;;14.23;12.70;;;4.40;99.90;;;;;;5018209;28;20178;-68
2021/03/17 06:39:40;;;;;;;17.43;13.67;;;4.40;99.90;;;;;;5030772;28;20464;-67
2021/03/17 06:42:07;;;;;;;15.40;13.20;;;4.40;99.90;;;;;;5029267;28;20497;-68
2021/03/17 06:44:33;;;;;;;20.00;14.63;;;4.40;99.90;;;;;;5030362;28;20166;-67
2021/03/17 06:47:21;;;;;;;17.00;13.63;;;4.30;99.90;;;;;;5029862;28;21004;-67
2021/03/17 06:49:49;;;;;;;17.47;14.43;;;4.40;99.90;;;;;;5031696;28;20659;-67
2021/03/17 06:52:34;;;;;;;19.70;16.27;;;4.40;99.90;;;;;;5031529;28;20483;-67
2021/03/17 06:55:10;;;;;;;16.53;13.87;;;4.40;99.90;;;;;;5029687;28;20428;-67
2021/03/17 06:57:37;;;;;;;25.63;19.60;;;4.40;99.90;;;;;;5030202;28;20818;-67
2021/03/17 07:00:32;;;;;;;19.40;15.00;;;4.40;99.90;;;;;;5030124;28;20547;-67
2021/03/17 07:02:59;;;;;;;15.93;13.80;;;4.40;99.90;;;;;;5038540;28;20429;-67
2021/03/17 07:05:37;;;;;;;18.60;14.50;;;4.20;99.90;;;;;;5029527;28;20821;-67
2021/03/17 07:08:08;;;;;;;19.30;14.40;;;4.20;99.90;;;;;;5030257;28;20818;-67
2021/03/17 07:10:42;;;;;;;15.63;12.87;;;4.20;99.90;;;;;;5030472;28;20428;-67
2021/03/17 07:13:10;;;;;;;15.73;12.83;;;4.20;99.90;;;;;;5014950;28;20435;-67
2021/03/17 07:15:38;;;;;;;17.57;13.30;;;4.20;99.90;;;;;;5029475;28;20438;-67
2021/03/17 07:18:14;;;;;;;21.20;13.77;;;4.30;99.90;;;;;;5029720;28;20484;-68
2021/03/17 07:20:51;;;;;;;13.57;10.37;;;4.40;99.90;;;;;;5029884;28;20470;-67
2021/03/17 07:23:41;;;;;;;18.30;11.70;;;4.40;99.90;;;;;;5027300;28;20437;-68
2021/03/17 07:26:20;;;;;;;13.70;11.70;;;4.50;99.90;;;;;;5023658;28;20433;-67
2021/03/17 07:28:49;;;;;;;14.70;12.97;;;4.60;99.90;;;;;;5033323;28;20539;-67
2021/03/17 07:31:16;;;;;;;12.40;10.37;;;4.70;99.90;;;;;;5032667;28;20482;-67
2021/03/17 07:33:50;;;;;;;14.20;12.03;;;4.80;99.90;;;;;;5030988;28;20433;-67
2021/03/17 07:36:38;;;;;;;14.63;11.20;;;4.80;99.90;;;;;;5027633;28;20420;-67
2021/03/17 07:39:17;;;;;;;17.07;11.37;;;4.90;99.90;;;;;;5013755;28;20547;-67
2021/03/17 07:41:44;;;;;;;12.27;10.90;;;4.90;99.90;;;;;;5005363;28;20444;-67
2021/03/17 07:44:12;;;;;;;15.57;10.80;;;5.00;99.90;;;;;;4999028;28;20444;-66
2021/03/17 07:46:40;;;;;;;13.23;10.80;;;5.00;99.90;;;;;;5025600;28;20447;-67
2021/03/17 07:49:07;;;;;;;12.40;11.00;;;4.90;99.90;;;;;;5028102;28;20992;-67
2021/03/17 07:51:40;;;;;;;12.23;10.30;;;5.00;99.90;;;;;;5022188;28;20440;-67
2021/03/17 07:54:07;;;;;;;12.37;11.07;;;5.10;99.90;;;;;;5021319;28;20478;-67
2021/03/17 07:56:33;;;;;;;13.07;10.77;;;5.20;99.90;;;;;;5034303;28;20474;-67
2021/03/17 07:59:00;;;;;;;12.30;11.00;;;5.30;99.90;;;;;;5039095;28;20464;-67
2021/03/17 08:01:26;;;;;;;14.23;11.93;;;5.50;99.90;;;;;;5028540;28;20972;-67
2021/03/17 08:03:52;;;;;;;15.90;11.80;;;5.70;99.90;;;;;;5029888;28;20528;-67
2021/03/17 08:06:20;;;;;;;12.53;10.00;;;5.70;99.90;;;;;;5027137;28;20524;-67
2021/03/17 08:08:47;;;;;;;12.80;9.70;;;5.80;99.90;;;;;;5029338;28;20194;-67
2021/03/17 08:11:16;;;;;;;12.83;10.20;;;5.90;99.90;;;;;;5029987;28;20483;-67
2021/03/17 08:13:45;;;;;;;15.83;11.97;;;6.10;99.90;;;;;;5027349;28;20432;-67
2021/03/17 08:16:12;;;;;;;16.60;10.50;;;6.50;99.90;;;;;;5028862;28;20437;-67
2021/03/17 08:18:39;;;;;;;12.87;10.03;;;6.80;99.90;;;;;;5029211;28;20463;-68
2021/03/17 08:21:05;;;;;;;11.60;9.30;;;7.20;99.90;;;;;;5029789;28;20437;-67
2021/03/17 08:23:38;;;;;;;15.03;10.57;;;7.40;99.90;;;;;;5029643;28;20439;-67
2021/03/17 08:26:05;;;;;;;11.87;10.37;;;7.40;99.90;;;;;;5029622;28;20491;-67
2021/03/17 08:28:30;;;;;;;10.20;8.80;;;7.50;99.90;;;;;;5018259;28;21108;-67
2021/03/17 08:30:57;;;;;;;9.03;6.77;;;7.60;99.90;;;;;;5025195;28;20437;-67
2021/03/17 08:33:41;;;;;;;8.73;7.63;;;7.70;99.90;;;;;;5029160;28;20190;-67
2021/03/17 08:36:11;;;;;;;9.10;8.10;;;7.80;99.90;;;;;;5027987;28;20472;-67
2021/03/17 08:38:50;;;;;;;10.07;5.90;;;7.80;99.90;;;;;;5025014;28;20496;-67
2021/03/17 08:41:38;;;;;;;10.13;6.13;;;7.80;99.90;;;;;;5029172;28;20464;-67
2021/03/17 08:44:19;;;;;;;8.10;6.30;;;7.90;99.90;;;;;;5029084;28;20439;-67
2021/03/17 08:46:46;;;;;;;7.43;5.30;;;8.10;99.90;;;;;;5028544;28;20451;-67
2021/03/17 08:49:13;;;;;;;10.50;6.43;;;8.40;99.90;;;;;;5029039;28;20480;-67
2021/03/17 08:51:47;;;;;;;6.40;5.70;;;8.70;99.90;;;;;;5029063;28;20480;-67
2021/03/17 08:54:43;;;;;;;8.77;6.30;;;8.90;99.90;;;;;;5028954;28;20445;-67
2021/03/17 08:57:10;;;;;;;7.70;5.80;;;9.20;99.90;;;;;;4992255;28;20812;-67
2021/03/17 08:59:40;;;;;;;6.40;5.13;;;9.30;99.90;;;;;;5028929;28;20468;-67
2021/03/17 09:02:16;;;;;;;6.43;5.67;;;8.60;99.90;;;;;;5028650;28;20443;-67
2021/03/17 09:04:49;;;;;;;9.43;7.57;;;8.30;99.90;;;;;;5014266;28;20428;-67
2021/03/17 09:07:16;;;;;;;8.40;7.10;;;8.20;99.90;;;;;;5025535;28;20532;-67
2021/03/17 09:09:51;;;;;;;9.40;6.90;;;8.60;99.90;;;;;;5019895;28;20510;-67
2021/03/17 09:12:39;;;;;;;8.50;6.67;;;9.50;99.90;;;;;;5026309;28;20969;-67
2021/03/17 09:15:13;;;;;;;5.87;5.27;;;11.20;99.90;;;;;;5026320;28;20444;-68
2021/03/17 09:17:58;;;;;;;6.93;5.10;;;12.80;99.90;;;;;;5025510;28;20452;-68
2021/03/17 09:20:33;;;;;;;5.50;5.00;;;13.90;99.90;;;;;;5031009;28;20559;-68
2021/03/17 09:23:00;;;;;;;5.83;5.20;;;15.70;97.40;;;;;;5032741;28;20486;-68
2021/03/17 09:25:36;;;;;;;5.80;5.10;;;16.90;85.40;;;;;;5038263;28;20516;-68
2021/03/17 09:28:02;;;;;;;5.50;5.00;;;16.70;80.90;;;;;;5032199;28;20522;-68
2021/03/17 09:30:30;;;;;;;6.27;5.60;;;17.60;77.30;;;;;;5028745;28;20440;-68
2021/03/17 09:33:08;;;;;;;4.93;4.50;;;18.20;70.90;;;;;;5033942;28;20447;-67
2021/03/17 09:35:35;;;;;;;4.53;4.17;;;18.80;67.80;;;;;;5027034;28;20436;-68
2021/03/17 09:38:04;;;;;;;6.60;5.60;;;17.30;63.70;;;;;;5023819;28;20550;-68
2021/03/17 09:40:40;;;;;;;6.50;5.20;;;15.90;70.30;;;;;;5009117;28;20588;-68
2021/03/17 09:43:27;;;;;;;7.43;4.97;;;14.80;78.10;;;;;;5027630;28;20529;-70
2021/03/17 09:45:53;;;;;;;6.07;5.20;;;14.10;80.20;;;;;;5027912;28;20527;-67
2021/03/17 09:48:19;;;;;;;5.50;4.80;;;12.90;82.20;;;;;;5027675;28;20981;-67
2021/03/17 09:50:46;;;;;;;6.50;4.70;;;12.00;87.90;;;;;;5029282;28;20444;-67
2021/03/17 09:53:16;;;;;;;5.00;4.23;;;12.00;90.70;;;;;;5042796;28;20454;-67
2021/03/17 09:55:42;;;;;;;4.83;4.43;;;12.30;89.00;;;;;;5022999;28;20474;-67
2021/03/17 09:58:09;;;;;;;4.67;4.03;;;14.10;86.90;;;;;;5022635;28;20985;-68
2021/03/17 10:00:36;;;;;;;3.80;3.50;;;15.80;77.10;;;;;;5020871;28;21025;-67
2021/03/17 10:03:05;;;;;;;3.50;3.30;;;17.40;66.00;;;;;;5019418;28;20981;-67
2021/03/17 10:05:31;;;;;;;3.90;3.50;;;17.30;62.10;;;;;;5024594;28;20430;-67
2021/03/17 10:07:57;;;;;;;6.60;4.10;;;16.80;63.70;;;;;;5027101;28;20452;-67
2021/03/17 10:10:24;;;;;;;4.73;4.33;;;15.40;65.70;;;;;;5026635;28;20555;-67
2021/03/17 10:12:51;;;;;;;4.40;4.00;;;14.00;69.70;;;;;;5027123;28;20444;-66
2021/03/17 10:15:22;;;;;;;4.60;4.20;;;12.80;75.20;;;;;;5017698;28;20447;-66
2021/03/17 10:17:50;;;;;;;7.67;6.87;;;13.20;79.30;;;;;;5017214;28;20514;-66
2021/03/17 10:20:18;;;;;;;5.13;4.50;;;14.20;77.40;;;;;;5024850;28;21180;-67
2021/03/17 10:22:45;;;;;;;5.07;4.67;;;16.10;67.50;;;;;;5024112;28;20440;-66
2021/03/17 10:25:16;;;;;;;4.40;4.00;;;16.20;66.20;;;;;;5026280;28;20490;-67
2021/03/17 10:27:47;;;;;;;4.40;4.10;;;16.10;64.20;;;;;;5025647;28;21390;-67
2021/03/17 10:30:16;;;;;;;5.27;4.77;;;16.10;62.20;;;;;;5017945;28;20885;-66
2021/03/17 10:32:44;;;;;;;5.10;4.63;;;15.50;64.80;;;;;;5025900;28;20896;-67
2021/03/17 10:35:13;;;;;;;4.10;3.80;;;15.20;66.30;;;;;;5026170;28;20439;-66
2021/03/17 10:37:40;;;;;;;3.80;3.43;;;15.00;67.00;;;;;;5023884;28;21406;-70
2021/03/17 10:40:12;;;;;;;3.37;3.17;;;15.00;66.20;;;;;;5020172;28;20976;-70
2021/03/17 10:42:45;;;;;;;4.00;3.70;;;14.80;67.00;;;;;;5027408;28;21098;-66
2021/03/17 10:45:20;;;;;;;4.30;3.90;;;15.60;67.20;;;;;;5026819;28;20440;-67
2021/03/17 10:47:47;;;;;;;3.70;3.50;;;16.80;62.70;;;;;;5014064;28;20472;-66
2021/03/17 10:50:26;;;;;;;3.33;3.07;;;17.60;60.00;;;;;;5026380;28;20569;-67
2021/03/17 10:52:52;;;;;;;4.30;3.90;;;18.60;57.80;;;;;;5021595;28;20815;-66
2021/03/17 10:55:29;;;;;;;3.90;3.43;;;18.80;55.50;;;;;;5025131;28;20452;-66
2021/03/17 10:58:15;;;;;;;3.53;3.27;;;17.60;55.70;;;;;;5027114;28;20220;-67
2021/03/17 11:00:43;;;;;;;3.87;3.57;;;16.40;57.30;;;;;;5028179;28;20504;-67
2021/03/17 11:03:31;;;;;;;3.57;3.33;;;15.40;58.70;;;;;;5030461;28;20439;-67
2021/03/17 11:06:15;;;;;;;3.90;3.60;;;14.60;60.90;;;;;;5030110;28;20431;-67
2021/03/17 11:08:43;;;;;;;4.20;3.90;;;13.90;63.10;;;;;;5030787;28;20510;-67
2021/03/17 11:11:10;;;;;;;3.97;3.60;;;12.90;68.20;;;;;;5031216;28;20899;-67
2021/03/17 11:13:45;;;;;;;3.87;3.47;;;12.30;71.40;;;;;;5031168;28;20433;-67
2021/03/17 11:16:32;;;;;;;4.80;3.40;;;11.60;74.60;;;;;;5030651;28;20424;-67
2021/03/17 11:18:59;;;;;;;3.90;3.57;;;11.10;78.00;;;;;;5031261;28;20543;-67
2021/03/17 11:21:31;;;;;;;3.23;2.93;;;10.60;80.20;;;;;;5031001;28;20420;-67
2021/03/17 11:23:59;;;;;;;3.63;3.00;;;10.50;82.30;;;;;;5030608;28;20433;-66
2021/03/17 11:26:31;;;;;;;3.10;2.80;;;10.10;83.20;;;;;;5030340;28;20519;-67
2021/03/17 11:28:59;;;;;;;4.40;2.83;;;10.00;86.70;;;;;;5030990;28;21044;-67
2021/03/17 11:31:36;;;;;;;3.47;3.13;;;9.80;87.00;;;;;;5030735;28;20471;-67
2021/03/17 11:34:03;;;;;;;3.13;2.83;;;9.70;90.30;;;;;;5030530;28;20440;-66
2021/03/17 11:36:30;;;;;;;4.53;4.00;;;9.70;91.60;;;;;;5030179;28;20543;-67
2021/03/17 11:39:00;;;;;;;7.50;5.40;;;9.50;92.20;;;;;;5030444;28;20463;-67
2021/03/17 11:41:27;;;;;;;6.33;4.37;;;9.30;93.30;;;;;;5030401;28;20486;-66
2021/03/17 11:43:53;;;;;;;5.60;4.23;;;9.20;93.80;;;;;;5028647;28;20564;-69
2021/03/17 11:46:19;;;;;;;4.43;4.03;;;9.10;95.30;;;;;;5029577;28;20451;-66
2021/03/17 11:48:46;;;;;;;4.33;3.37;;;8.90;97.80;;;;;;5029797;28;20533;-66
2021/03/17 11:51:11;;;;;;;5.90;4.80;;;8.80;99.90;;;;;;5028299;28;20447;-67
2021/03/17 11:53:37;;;;;;;7.00;5.47;;;8.70;99.90;;;;;;5025625;28;20436;-69
2021/03/17 11:56:05;;;;;;;7.50;5.07;;;8.40;99.90;;;;;;5030047;28;20175;-67
2021/03/17 11:58:31;;;;;;;6.33;5.73;;;8.20;99.90;;;;;;5028557;28;20464;-68
2021/03/17 12:00:56;;;;;;;7.07;6.37;;;8.00;99.90;;;;;;5029316;28;20468;-67
2021/03/17 12:03:22;;;;;;;6.80;6.17;;;7.70;99.90;;;;;;5025640;28;20248;-68
2021/03/17 12:05:48;;;;;;;10.00;6.87;;;7.50;99.90;;;;;;5018093;28;20262;-66
2021/03/17 12:08:14;;;;;;;12.80;8.10;;;7.40;99.90;;;;;;5027918;28;20205;-65
2021/03/17 12:10:41;;;;;;;9.73;7.67;;;7.20;99.90;;;;;;5028993;28;20194;-67
2021/03/17 12:13:07;;;;;;;8.80;7.90;;;7.20;99.90;;;;;;5029093;28;20532;-68
2021/03/17 12:15:32;;;;;;;15.50;13.93;;;7.20;99.90;;;;;;5023342;28;20525;-67
2021/03/17 12:17:58;;;;;;;67.33;45.80;;;7.30;99.90;;;;;;5027476;28;20579;-66
2021/03/17 12:20:26;;;;;;;16.17;10.77;;;7.40;99.90;;;;;;5029707;28;20256;-66
2021/03/17 12:22:52;;;;;;;11.17;9.77;;;7.30;99.90;;;;;;5029526;28;20229;-68
2021/03/17 12:25:19;;;;;;;13.77;9.50;;;7.10;99.90;;;;;;5029489;28;20517;-67
2021/03/17 12:27:44;;;;;;;12.23;9.17;;;7.10;99.90;;;;;;5029232;28;20547;-67
2021/03/17 12:30:13;;;;;;;16.00;8.77;;;7.00;99.90;;;;;;5029353;28;20444;-67
2021/03/17 12:32:39;;;;;;;10.70;7.60;;;6.90;99.90;;;;;;5024270;28;20484;-66
2021/03/17 12:35:07;;;;;;;13.23;8.77;;;6.90;99.90;;;;;;5023199;28;20651;-66
2021/03/17 12:37:33;;;;;;;10.60;7.70;;;6.80;99.90;;;;;;5025925;28;20469;-67
2021/03/17 12:39:59;;;;;;;11.43;7.50;;;6.60;99.90;;;;;;5028423;28;20565;-66
2021/03/17 12:42:25;;;;;;;11.93;7.83;;;6.60;99.90;;;;;;5028786;28;20189;-68
2021/03/17 12:44:50;;;;;;;9.30;7.93;;;6.60;99.90;;;;;;5022868;28;20183;-68
2021/03/17 12:47:16;;;;;;;12.30;9.67;;;6.60;99.90;;;;;;5025950;28;20865;-66
2021/03/17 12:49:42;;;;;;;12.33;8.73;;;6.70;99.90;;;;;;5023483;28;20237;-66
2021/03/17 12:52:09;;;;;;;15.10;9.30;;;6.70;99.90;;;;;;5025775;28;20452;-66
2021/03/17 12:54:35;;;;;;;9.67;8.27;;;6.80;99.90;;;;;;5016301;28;20730;-67
2021/03/17 12:57:00;;;;;;;11.07;9.03;;;6.90;99.90;;;;;;5022339;28;20441;-66
2021/03/17 12:59:26;;;;;;;13.43;8.70;;;6.90;99.90;;;;;;5023398;28;20221;-66
2021/03/17 13:01:52;;;;;;;9.70;8.37;;;6.70;99.90;;;;;;5025033;28;20183;-66